Terminal Aerodrome Forecast
Issued by NWS

Home | Current Version | Previous Version | Text Only | Print | Product List | Glossary On
Versions: 1 2 3 4 5 6 7 8 9 10 11 12 13 14
636
FTUS43 KDTX 271125
TAFDET
TAF
KDET 271125Z 2712/2812 25008KT P6SM SCT250
     FM271600 28013G23KT P6SM FEW060
     FM280100 31010KT P6SM SCT045
     FM280500 33005KT P6SM BKN045=

USA.gov is the U.S. government's official web portal to all federal, state and local government web resources and services.